createdAt,value
2023-04-01T12:12:04.412Z,98776.81
2023-04-01T12:15:02.028Z,98784.53
2023-04-01T12:17:46.744Z,98787.28
2023-04-01T12:20:13.267Z,98794.41
2023-04-01T12:23:08.755Z,98797.41
2023-04-01T12:25:44.858Z,98794.66
2023-04-01T12:28:26.426Z,98795.16
2023-04-01T12:31:17.382Z,98798.63
2023-04-01T12:33:47.022Z,98808.91
2023-04-01T12:36:32.444Z,98806.00
2023-04-01T12:39:40.294Z,98808.81
2023-04-01T12:42:42.376Z,98816.28
2023-04-01T12:45:45.872Z,98819.34
2023-04-01T12:48:35.230Z,98833.72
2023-04-01T12:51:28.890Z,98824.97
2023-04-01T12:54:33.025Z,98832.63
2023-04-01T12:57:18.329Z,98841.41
2023-04-01T12:59:55.322Z,98842.91
2023-04-01T13:02:42.244Z,98854.69
2023-04-01T13:05:21.274Z,98850.09
2023-04-01T13:08:09.685Z,98856.13
2023-04-01T13:10:49.000Z,98854.59
2023-04-01T13:13:49.758Z,98864.22
2023-04-01T13:16:30.625Z,98862.34
2023-04-01T13:19:03.500Z,98865.19
2023-04-01T13:21:42.749Z,98874.63
2023-04-01T13:24:52.834Z,98871.88
2023-04-01T13:27:31.764Z,98875.59
2023-04-01T13:30:43.156Z,98885.03
2023-04-01T13:33:22.202Z,98885.63
2023-04-01T13:36:16.193Z,98882.72
2023-04-01T13:39:15.987Z,98889.88
2023-04-01T13:41:56.608Z,98891.84
2023-04-01T13:44:36.597Z,98899.72
2023-04-01T13:47:30.389Z,98895.06
2023-04-01T13:50:31.448Z,98903.59
2023-04-01T13:53:07.501Z,98910.53
2023-04-01T13:56:04.974Z,98901.34
2023-04-01T13:58:44.526Z,98920.34
2023-04-01T14:01:24.557Z,98908.22
2023-04-01T14:04:01.237Z,98913.06
2023-04-01T14:06:35.875Z,98912.16
2023-04-01T14:09:19.676Z,98923.19
2023-04-01T14:11:53.433Z,98930.34
2023-04-01T14:14:57.557Z,98933.25
2023-04-01T14:17:45.456Z,98930.84
2023-04-01T14:20:27.761Z,98936.13
2023-04-01T14:23:16.180Z,98940.38
2023-04-01T14:26:16.983Z,98945.03
2023-04-01T14:29:02.174Z,98950.44
2023-04-01T14:31:46.296Z,98956.75
2023-04-01T14:34:15.932Z,98942.31
2023-04-01T14:37:14.157Z,98952.56
2023-04-01T14:40:18.618Z,98956.00
2023-04-01T14:43:06.709Z,98958.06
2023-04-01T14:46:09.373Z,98956.63
2023-04-01T14:48:39.519Z,98964.47
2023-04-01T14:51:17.671Z,98963.66
2023-04-01T14:53:54.373Z,98969.00
2023-04-01T14:56:44.872Z,98968.50
2023-04-01T14:59:26.845Z,98971.91
2023-04-01T15:01:59.529Z,98971.38
2023-04-01T15:04:55.536Z,98978.00
2023-04-01T15:07:47.798Z,98984.28
2023-04-01T15:10:32.741Z,98981.09
2023-04-01T15:13:30.894Z,98988.69
2023-04-01T15:16:16.439Z,99000.66
2023-04-01T15:18:52.149Z,98999.94
2023-04-01T15:21:56.199Z,99002.16
2023-04-01T15:24:27.866Z,99007.28
2023-04-01T15:27:06.283Z,99000.59
2023-04-01T15:29:53.009Z,99014.88
2023-04-01T15:32:50.899Z,99011.22
2023-04-01T15:35:41.096Z,99017.09
2023-04-01T15:38:16.268Z,99026.13
2023-04-01T15:40:52.929Z,99023.94
2023-04-01T15:43:50.881Z,99018.56
2023-04-01T15:46:45.574Z,99032.50
2023-04-01T15:49:30.944Z,99037.94
2023-04-01T15:52:15.675Z,99039.16
2023-04-01T15:55:13.541Z,99040.47
2023-04-01T15:58:04.151Z,99039.34
2023-04-01T16:00:54.512Z,99054.22
2023-04-01T16:03:42.208Z,99056.19
2023-04-01T16:06:30.369Z,99058.59
2023-04-01T16:09:12.341Z,99062.09
2023-04-01T16:11:49.868Z,99059.66
2023-04-01T16:14:40.845Z,99063.75
2023-04-01T16:17:21.472Z,99065.00
2023-04-01T16:19:51.322Z,99065.81
2023-04-01T16:22:24.256Z,99065.81
2023-04-01T16:25:02.638Z,99069.28
2023-04-01T16:27:52.387Z,99076.16
2023-04-01T16:30:39.321Z,99078.06
2023-04-01T16:33:14.756Z,99079.69
2023-04-01T16:35:44.403Z,99071.50
2023-04-01T16:38:24.199Z,99083.41
2023-04-01T16:40:53.588Z,99094.34
2023-04-01T16:43:43.135Z,99089.00
2023-04-01T16:46:36.657Z,99100.38
2023-04-01T16:49:12.332Z,99099.81
2023-04-01T16:51:47.328Z,99097.13
2023-04-01T16:54:37.423Z,99111.09
2023-04-01T16:57:33.177Z,99112.97
2023-04-01T17:00:15.927Z,99109.78
2023-04-01T17:02:59.271Z,99123.84
2023-04-01T17:05:58.950Z,99127.03
2023-04-01T17:08:54.882Z,99125.75
2023-04-01T17:11:30.809Z,99140.50
2023-04-01T17:14:03.984Z,99136.31
2023-04-01T17:16:52.141Z,99138.81
2023-04-01T17:19:48.556Z,99144.84
2023-04-01T17:22:28.646Z,99150.88
2023-04-01T17:25:41.712Z,99157.00
2023-04-01T17:28:50.563Z,99156.13
2023-04-01T17:31:35.330Z,99164.41
2023-04-01T17:34:15.374Z,99167.53
2023-04-01T17:37:23.704Z,99160.16
2023-04-01T17:40:12.124Z,99178.47
2023-04-01T17:42:47.844Z,99173.38
2023-04-01T17:45:33.087Z,99183.00
2023-04-01T17:48:07.655Z,99181.84
2023-04-01T17:50:53.903Z,99196.69
2023-04-01T17:53:26.203Z,99193.03
2023-04-01T17:56:00.991Z,99198.41
2023-04-01T17:58:45.004Z,99200.16
2023-04-01T18:01:14.288Z,99222.50
2023-04-01T18:03:58.999Z,99219.09
2023-04-01T18:06:33.449Z,99224.28
2023-04-01T18:09:09.850Z,99223.31
2023-04-01T18:12:02.389Z,99226.03
2023-04-01T18:15:22.493Z,99235.28
2023-04-01T18:18:10.020Z,99240.44
2023-04-01T18:20:54.930Z,99247.06
2023-04-01T18:23:31.769Z,99254.53
2023-04-01T18:26:14.614Z,99257.91
2023-04-01T18:28:53.880Z,99266.88
2023-04-01T18:31:25.276Z,99274.66
2023-04-01T18:34:02.983Z,99270.31
2023-04-01T18:36:47.854Z,99280.69
2023-04-01T18:39:14.969Z,99290.44
2023-04-01T18:41:48.607Z,99296.13
2023-04-01T18:44:56.875Z,99307.94
2023-04-01T18:47:26.660Z,99311.34
2023-04-01T18:50:02.371Z,99319.44
2023-04-01T18:52:31.885Z,99319.69
2023-04-01T18:55:04.227Z,99325.84
2023-04-01T18:57:47.019Z,99338.41
2023-04-01T19:00:35.716Z,99342.69
2023-04-01T19:03:20.987Z,99350.38
2023-04-01T19:05:51.308Z,99356.53
2023-04-01T19:08:29.308Z,99354.28
2023-04-01T19:10:59.007Z,99370.50
2023-04-01T19:13:34.579Z,99370.63
2023-04-01T19:16:11.934Z,99374.50
2023-04-01T19:18:54.655Z,99388.44
2023-04-01T19:21:34.379Z,99387.88
2023-04-01T19:24:23.062Z,99404.06
2023-04-01T19:26:59.987Z,99401.88
2023-04-01T19:29:48.187Z,99409.16
2023-04-01T19:32:43.163Z,99413.00
2023-04-01T19:35:27.282Z,99423.91
2023-04-01T19:38:25.191Z,99413.59
2023-04-01T19:40:55.557Z,99429.78
2023-04-01T19:43:37.601Z,99432.00
2023-04-01T19:46:15.694Z,99433.66
2023-04-01T19:49:15.578Z,99440.94
2023-04-01T19:51:52.341Z,99448.75
2023-04-01T19:54:41.680Z,99454.31
2023-04-01T19:57:17.558Z,99458.47
2023-04-01T20:00:03.197Z,99457.38
2023-04-01T20:02:54.649Z,99473.22
2023-04-01T20:05:24.373Z,99468.72
2023-04-01T20:08:02.066Z,99480.47
2023-04-01T20:10:57.364Z,99486.00
2023-04-01T20:13:41.321Z,99499.41
2023-04-01T20:16:09.730Z,99506.66
2023-04-01T20:19:01.863Z,99511.94
2023-04-01T20:21:36.305Z,99499.38
2023-04-01T20:24:17.903Z,99515.84
2023-04-01T20:26:50.990Z,99523.34
2023-04-01T20:29:23.575Z,99529.47
2023-04-01T20:32:17.760Z,99541.41
2023-04-01T20:35:02.310Z,99546.41
2023-04-01T20:37:45.887Z,99561.19
2023-04-01T20:40:31.135Z,99553.41
2023-04-01T20:43:18.577Z,99562.81
2023-04-01T20:46:06.285Z,99567.25
2023-04-01T20:49:12.559Z,99571.06
2023-04-01T20:51:44.046Z,99586.94
2023-04-01T20:54:38.974Z,99589.47
2023-04-01T20:57:27.306Z,99596.31
2023-04-01T21:00:47.764Z,99599.66
2023-04-01T21:03:26.232Z,99603.88
2023-04-01T21:06:00.541Z,99610.22
2023-04-01T21:08:41.280Z,99613.44
2023-04-01T21:11:35.277Z,99621.09
2023-04-01T21:14:43.752Z,99626.00
2023-04-01T21:17:44.527Z,99643.72
2023-04-01T21:20:44.909Z,99648.63
2023-04-01T21:23:17.269Z,99657.53
2023-04-01T21:26:20.484Z,99659.72
2023-04-01T21:29:12.985Z,99668.25
2023-04-01T21:31:45.811Z,99674.88
2023-04-01T21:34:52.858Z,99684.16
2023-04-01T21:37:35.682Z,99687.63
2023-04-01T21:40:24.930Z,99699.28
2023-04-01T21:43:35.953Z,99707.63
2023-04-01T21:46:20.692Z,99713.38
2023-04-01T21:48:56.208Z,99719.16
2023-04-01T21:51:41.580Z,99727.69
2023-04-01T21:54:28.736Z,99731.56
2023-04-01T21:57:21.948Z,99742.53
2023-04-01T22:00:12.286Z,99743.34
2023-04-01T22:03:23.856Z,99756.50
2023-04-01T22:06:03.718Z,99750.19
2023-04-01T22:08:55.177Z,99768.19
2023-04-01T22:11:38.345Z,99771.16
2023-04-01T22:14:24.705Z,99783.19
2023-04-01T22:17:04.218Z,99771.56
2023-04-01T22:19:56.973Z,99789.00
2023-04-01T22:22:52.675Z,99799.81
2023-04-01T22:25:48.477Z,99804.34
2023-04-01T22:28:25.459Z,99806.25
2023-04-01T22:30:56.328Z,99817.59
2023-04-01T22:33:33.971Z,99809.53
2023-04-01T22:36:27.674Z,99825.00
2023-04-01T22:39:15.816Z,99828.25
2023-04-01T22:42:02.363Z,99839.47
2023-04-01T22:44:53.034Z,99843.50
2023-04-01T22:47:33.000Z,99847.88
2023-04-01T22:50:17.974Z,99858.28
2023-04-01T22:52:49.165Z,99860.16
2023-04-01T22:55:24.970Z,99873.03
2023-04-01T22:57:57.886Z,99874.72
2023-04-01T23:00:53.701Z,99866.16
2023-04-01T23:03:24.722Z,99878.28
2023-04-01T23:05:57.465Z,99895.50
2023-04-01T23:09:02.118Z,99891.38
2023-04-01T23:11:43.603Z,99896.94
2023-04-01T23:14:24.256Z,99903.16
2023-04-01T23:17:03.673Z,99909.53
2023-04-01T23:19:44.448Z,99920.16
2023-04-01T23:22:22.502Z,99921.44
2023-04-01T23:24:56.466Z,99917.03
2023-04-01T23:27:39.529Z,99933.81
2023-04-01T23:30:41.581Z,99931.59
2023-04-01T23:33:20.548Z,99947.00
2023-04-01T23:35:51.818Z,99941.03
2023-04-01T23:38:21.143Z,99956.84
2023-04-01T23:40:51.207Z,99951.31
2023-04-01T23:43:29.330Z,99951.63
2023-04-01T23:45:57.118Z,99961.75
2023-04-01T23:48:30.543Z,99976.19
2023-04-01T23:50:58.433Z,99981.81
2023-04-01T23:53:29.797Z,99987.03
2023-04-01T23:55:57.099Z,99989.69
2023-04-01T23:58:27.619Z,99996.25
